Time;durP1;ratioP1;P1;durP2;ratioP2;P2;SDS_P1;SDS_P2;PMS_P1;PMS_P2;Temp;Humidity;BMP_temperature;BMP_pressure;BME280_temperature;BME280_humidity;BME280_pressure;Samples;Min_cycle;Max_cycle;Signal;HPM_P1;HPM_P2
2024/01/31 00:00:38;;;;;;;9.77;6.80;;;;;;;12.01;53.88;100394.38;6707298;29;20317;-79
2024/01/31 00:03:59;;;;;;;8.73;7.17;;;;;;;11.77;54.84;100389.91;6707867;29;20582;-78
2024/01/31 00:07:21;;;;;;;9.77;6.93;;;;;;;11.87;54.46;100395.94;6707521;29;20235;-78
2024/01/31 00:10:42;;;;;;;10.00;7.23;;;;;;;11.87;54.24;100379.72;6707361;29;20260;-78
2024/01/31 00:14:07;;;;;;;10.43;7.37;;;;;;;11.81;54.33;100374.19;6707268;29;20240;-79
2024/01/31 00:17:30;;;;;;;10.87;7.53;;;;;;;11.83;54.34;100380.25;6707188;29;20233;-78
2024/01/31 00:20:52;;;;;;;8.37;7.03;;;;;;;12.00;53.70;100377.31;6707041;29;20324;-78
2024/01/31 00:24:13;;;;;;;12.73;7.57;;;;;;;11.69;54.21;100344.00;6707012;29;20190;-77
2024/01/31 00:27:35;;;;;;;9.47;7.13;;;;;;;11.21;55.68;100383.78;6706832;29;20303;-78
2024/01/31 00:30:56;;;;;;;9.57;7.93;;;;;;;11.66;55.39;100375.94;6706587;29;20230;-77
2024/01/31 00:34:19;;;;;;;10.03;7.37;;;;;;;12.08;54.30;100382.69;6706688;29;20224;-79
2024/01/31 00:37:41;;;;;;;10.97;7.43;;;;;;;11.93;54.01;100361.97;6681101;29;20658;-78
2024/01/31 00:41:02;;;;;;;11.13;7.17;;;;;;;11.61;55.08;100362.94;6681650;29;20230;-79
2024/01/31 00:44:24;;;;;;;9.53;7.30;;;;;;;11.96;54.95;100375.13;6681640;29;20742;-78
2024/01/31 00:47:46;;;;;;;10.90;6.53;;;;;;;12.14;54.33;100386.53;6681465;29;20217;-77
2024/01/31 00:51:11;;;;;;;7.63;6.87;;;;;;;12.13;54.37;100385.72;6717491;29;20674;-77
2024/01/31 00:54:33;;;;;;;7.53;6.23;;;;;;;12.24;53.92;100382.59;6732216;29;20199;-77
2024/01/31 00:57:54;;;;;;;13.03;8.23;;;;;;;12.35;53.83;100378.66;6731412;29;20340;-78
2024/01/31 01:01:16;;;;;;;9.23;7.37;;;;;;;12.35;53.83;100379.50;6731915;29;20318;-77
2024/01/31 01:04:37;;;;;;;8.07;6.67;;;;;;;12.24;54.15;100389.88;6731876;29;20295;-78
2024/01/31 01:08:00;;;;;;;8.70;6.47;;;;;;;12.26;54.48;100393.22;6731731;29;20310;-78
2024/01/31 01:11:22;;;;;;;9.83;6.93;;;;;;;12.08;54.70;100387.25;6731670;29;20723;-78
2024/01/31 01:14:43;;;;;;;9.87;7.70;;;;;;;12.09;54.80;100388.94;6731183;29;20690;-78
2024/01/31 01:18:05;;;;;;;10.17;6.80;;;;;;;12.31;54.45;100377.31;6729155;29;20262;-77
2024/01/31 01:21:27;;;;;;;8.17;6.27;;;;;;;11.81;55.75;100383.13;6705670;29;20330;-77
2024/01/31 01:24:50;;;;;;;7.67;6.57;;;;;;;12.15;55.07;100380.13;6705802;29;20225;-78
2024/01/31 01:28:11;;;;;;;8.27;7.00;;;;;;;12.06;55.40;100386.59;6705055;29;20365;-78
2024/01/31 01:31:33;;;;;;;8.50;6.73;;;;;;;12.15;55.31;100383.66;6705140;29;20307;-77
2024/01/31 01:34:55;;;;;;;9.57;7.07;;;;;;;11.96;56.02;100400.31;6705429;29;20372;-79
2024/01/31 01:38:16;;;;;;;9.10;6.80;;;;;;;11.90;56.31;100381.25;6705432;29;20749;-78
2024/01/31 01:41:39;;;;;;;10.40;7.13;;;;;;;12.10;55.91;100385.22;6705414;29;20244;-79
2024/01/31 01:45:01;;;;;;;7.70;6.70;;;;;;;12.23;55.60;100397.13;6705265;29;20616;-77
2024/01/31 01:48:22;;;;;;;9.10;7.90;;;;;;;12.02;55.97;100369.03;6705057;29;20297;-77
2024/01/31 01:51:44;;;;;;;8.97;7.57;;;;;;;12.03;56.24;100389.66;6705000;29;20205;-79
2024/01/31 01:55:07;;;;;;;7.20;6.43;;;;;;;12.14;55.93;100371.16;6705073;29;20220;-79
2024/01/31 01:58:30;;;;;;;11.07;7.33;;;;;;;12.40;55.35;100387.91;6704363;29;20277;-79
2024/01/31 02:01:52;;;;;;;10.17;7.00;;;;;;;12.23;55.49;100386.31;6704708;29;20305;-77
2024/01/31 02:05:14;;;;;;;10.60;7.00;;;;;;;12.44;55.07;100374.84;6704836;29;20353;-77
2024/01/31 02:08:35;;;;;;;10.00;7.43;;;;;;;11.86;56.37;100375.34;6704249;29;20374;-77
2024/01/31 02:11:57;;;;;;;9.70;7.33;;;;;;;12.23;55.81;100370.09;6704830;29;20746;-78
2024/01/31 02:15:20;;;;;;;11.70;7.87;;;;;;;12.28;55.52;100377.69;6704662;29;20316;-78
2024/01/31 02:18:41;;;;;;;14.47;8.40;;;;;;;12.30;55.16;100371.09;6704805;29;20241;-77
2024/01/31 02:22:03;;;;;;;14.70;10.10;;;;;;;12.49;54.75;100367.06;6704266;29;20359;-77
2024/01/31 02:25:26;;;;;;;12.87;9.87;;;;;;;12.22;54.42;100360.28;6704571;29;20308;-78
2024/01/31 02:28:48;;;;;;;13.77;10.43;;;;;;;12.50;53.79;100353.34;6704428;29;20607;-77
2024/01/31 02:32:09;;;;;;;12.90;8.80;;;;;;;12.07;55.32;100362.09;6704902;29;20356;-78
2024/01/31 02:35:33;;;;;;;11.27;8.07;;;;;;;12.27;55.13;100352.50;6705236;29;20332;-79
2024/01/31 02:38:54;;;;;;;11.40;8.50;;;;;;;12.11;55.29;100362.56;6704088;29;20316;-79
2024/01/31 02:42:18;;;;;;;10.17;8.47;;;;;;;11.50;57.00;100336.28;6703772;29;20348;-78
2024/01/31 02:45:39;;;;;;;10.60;8.23;;;;;;;12.02;56.69;100350.09;6703609;29;20232;-78
2024/01/31 02:49:01;;;;;;;12.47;8.73;;;;;;;12.08;56.30;100355.66;6719541;29;20457;-77
2024/01/31 02:52:22;;;;;;;14.43;9.93;;;;;;;11.95;56.13;100343.72;6729042;29;20414;-78
2024/01/31 02:55:44;;;;;;;13.43;9.33;;;;;;;12.05;56.17;100358.69;6695603;29;20224;-79
2024/01/31 02:59:07;;;;;;;11.87;8.90;;;;;;;11.70;56.54;100359.19;6703574;29;20382;-78
2024/01/31 03:02:28;;;;;;;13.47;9.47;;;;;;;12.04;56.45;100353.50;6703309;29;20738;-78
2024/01/31 03:05:50;;;;;;;12.03;9.23;;;;;;;11.92;56.38;100355.72;6703502;29;20289;-79
2024/01/31 03:09:11;;;;;;;12.47;9.13;;;;;;;12.19;55.71;100340.88;6703840;29;20284;-78
2024/01/31 03:12:33;;;;;;;13.10;10.17;;;;;;;11.97;56.46;100338.97;6703608;29;20674;-79
2024/01/31 03:15:56;;;;;;;14.93;8.53;;;;;;;12.13;55.92;100353.25;6708652;29;20724;-79
2024/01/31 03:19:20;;;;;;;12.17;9.93;;;;;;;12.05;56.07;100339.78;6708440;29;20267;-79
2024/01/31 03:22:42;;;;;;;11.97;9.47;;;;;;;12.06;56.01;100346.03;6707865;29;20252;-77
2024/01/31 03:26:03;;;;;;;12.33;10.07;;;;;;;12.23;55.62;100328.69;6708700;29;20356;-78
2024/01/31 03:29:25;;;;;;;12.83;10.10;;;;;;;12.45;55.01;100339.53;6708049;29;20323;-78
2024/01/31 03:32:48;;;;;;;13.10;10.07;;;;;;;11.81;56.02;100337.19;6708578;29;20220;-78
2024/01/31 03:36:10;;;;;;;14.23;10.43;;;;;;;11.96;56.28;100321.94;6708330;29;20277;-78
2024/01/31 03:39:32;;;;;;;12.57;9.83;;;;;;;12.17;55.90;100332.13;6708214;29;20705;-78
2024/01/31 03:42:54;;;;;;;13.20;10.43;;;;;;;12.27;55.52;100333.56;6707980;29;20213;-77
2024/01/31 03:46:15;;;;;;;13.43;9.97;;;;;;;12.43;55.25;100335.31;6707456;29;20245;-78
2024/01/31 03:49:38;;;;;;;11.20;8.73;;;;;;;12.33;55.52;100324.72;6708090;29;20776;-78
2024/01/31 03:53:00;;;;;;;15.37;10.17;;;;;;;12.08;55.95;100328.63;6707960;29;20674;-79
2024/01/31 03:56:21;;;;;;;13.23;10.73;;;;;;;11.70;56.94;100334.03;6707512;29;20324;-79
2024/01/31 03:59:43;;;;;;;13.73;10.00;;;;;;;11.74;56.68;100320.00;6708703;29;20847;-77
2024/01/31 04:03:05;;;;;;;13.20;9.80;;;;;;;12.37;55.73;100349.56;6707746;29;20277;-78
2024/01/31 04:06:27;;;;;;;10.60;9.50;;;;;;;11.97;55.81;100345.22;6707484;29;20307;-78
2024/01/31 04:09:49;;;;;;;12.77;9.90;;;;;;;12.02;56.27;100329.31;6707573;29;20366;-78
2024/01/31 04:13:10;;;;;;;12.83;10.27;;;;;;;12.18;55.82;100342.75;6707683;29;20329;-78
2024/01/31 04:16:32;;;;;;;10.33;9.23;;;;;;;11.79;56.25;100343.78;6706705;29;20237;-79
2024/01/31 04:19:53;;;;;;;13.23;9.70;;;;;;;11.73;56.49;100345.34;6731304;29;20291;-79
2024/01/31 04:23:17;;;;;;;11.33;9.87;;;;;;;11.92;56.29;100335.97;6713766;29;20336;-78
2024/01/31 04:26:43;;;;;;;12.53;10.00;;;;;;;12.03;55.82;100330.19;6706838;29;20266;-79
2024/01/31 04:30:05;;;;;;;12.70;9.47;;;;;;;12.17;55.83;100342.94;6706901;29;20237;-78
2024/01/31 04:33:27;;;;;;;12.07;9.53;;;;;;;12.18;55.73;100341.91;6706552;29;20299;-77
2024/01/31 04:36:48;;;;;;;14.00;8.37;;;;;;;12.36;55.30;100347.88;6706318;29;20323;-79
2024/01/31 04:40:12;;;;;;;11.33;9.20;;;;;;;12.47;55.00;100348.31;6706509;29;20229;-78
2024/01/31 04:43:33;;;;;;;11.77;8.50;;;;;;;12.67;54.34;100351.38;6706679;29;20268;-76
2024/01/31 04:46:55;;;;;;;13.50;9.70;;;;;;;12.57;54.09;100345.38;6706013;29;20682;-79
2024/01/31 04:50:17;;;;;;;13.53;9.43;;;;;;;12.38;54.69;100360.19;6706613;29;20238;-79
2024/01/31 04:53:38;;;;;;;12.77;10.40;;;;;;;12.38;55.13;100346.69;6706292;29;20218;-76
2024/01/31 04:57:01;;;;;;;14.53;9.50;;;;;;;12.49;54.56;100361.63;6705866;29;20324;-77
2024/01/31 05:00:23;;;;;;;12.47;9.77;;;;;;;12.40;54.68;100379.78;6705863;29;20244;-77
2024/01/31 05:03:45;;;;;;;12.20;9.40;;;;;;;12.62;54.55;100372.75;6698910;29;20216;-76
2024/01/31 05:07:07;;;;;;;15.83;9.73;;;;;;;12.32;54.75;100358.22;6680552;29;20294;-80
2024/01/31 05:10:28;;;;;;;10.97;8.93;;;;;;;12.42;54.98;100374.22;6680218;29;20320;-78
2024/01/31 05:13:51;;;;;;;14.07;10.23;;;;;;;12.60;54.24;100385.59;6680740;29;20251;-79
2024/01/31 05:17:15;;;;;;;13.00;9.90;;;;;;;12.06;55.66;100389.28;6679709;29;20324;-78
2024/01/31 05:20:37;;;;;;;13.70;9.80;;;;;;;12.33;55.12;100394.22;6699403;29;20837;-76
2024/01/31 05:23:58;;;;;;;10.93;8.60;;;;;;;12.52;54.93;100391.88;6720946;29;20269;-76
2024/01/31 05:27:20;;;;;;;13.00;9.50;;;;;;;12.54;54.65;100403.38;6731183;29;20303;-77
2024/01/31 05:30:43;;;;;;;11.20;9.73;;;;;;;12.40;55.28;100404.13;6731047;29;20330;-78
2024/01/31 05:34:04;;;;;;;13.63;9.77;;;;;;;12.44;55.09;100404.63;6731104;29;20268;-77
2024/01/31 05:37:47;;;;;;;10.97;9.03;;;;;;;12.05;55.78;100398.41;6730175;29;20236;-77
2024/01/31 05:41:09;;;;;;;13.80;9.70;;;;;;;12.06;55.17;100384.72;6724769;29;20233;-77
2024/01/31 05:44:31;;;;;;;15.63;12.03;;;;;;;11.68;56.24;100406.34;6705549;29;20269;-77
2024/01/31 05:47:54;;;;;;;19.17;12.57;;;;;;;11.93;56.02;100407.94;6704909;29;20361;-77
2024/01/31 05:51:15;;;;;;;16.53;11.63;;;;;;;12.32;55.19;100416.84;6704595;29;20270;-77
2024/01/31 05:54:39;;;;;;;16.60;11.13;;;;;;;12.35;54.85;100417.38;6704884;29;20359;-77
2024/01/31 05:58:00;;;;;;;13.03;10.87;;;;;;;12.39;54.85;100405.16;6717167;29;20598;-78
2024/01/31 06:01:22;;;;;;;12.83;10.37;;;;;;;11.92;56.54;100417.06;6730315;29;20232;-78
2024/01/31 06:04:45;;;;;;;15.10;11.57;;;;;;;11.64;57.88;100413.09;6730693;29;20371;-77
2024/01/31 06:08:07;;;;;;;14.40;11.33;;;;;;;11.89;57.33;100402.03;6730113;29;20657;-78
2024/01/31 06:11:28;;;;;;;16.53;12.10;;;;;;;11.82;58.14;100398.34;6729628;29;20235;-79
2024/01/31 06:14:50;;;;;;;15.03;11.93;;;;;;;11.74;57.90;100411.03;6730154;29;20212;-77
2024/01/31 06:18:14;;;;;;;24.07;14.27;;;;;;;11.74;58.35;100411.03;6729814;29;20770;-78
2024/01/31 06:21:36;;;;;;;31.77;16.67;;;;;;;11.64;59.50;100432.00;6729359;29;20240;-78
2024/01/31 06:24:58;;;;;;;27.87;17.53;;;;;;;12.03;58.38;100424.81;6729999;29;20711;-77
2024/01/31 06:28:20;;;;;;;20.80;13.03;;;;;;;12.26;57.71;100426.53;6729601;29;20204;-77
2024/01/31 06:31:46;;;;;;;19.43;13.10;;;;;;;12.26;57.65;100420.28;6729557;29;20272;-79
2024/01/31 06:35:08;;;;;;;18.23;12.27;;;;;;;12.29;57.21;100409.97;6729584;29;20197;-78
2024/01/31 06:38:31;;;;;;;13.50;10.40;;;;;;;11.96;58.27;100410.28;6728979;29;20319;-79
2024/01/31 06:41:52;;;;;;;13.80;10.80;;;;;;;12.28;57.51;100427.19;6706904;29;20322;-77
2024/01/31 06:45:14;;;;;;;14.73;10.53;;;;;;;12.40;57.02;100431.19;6703949;29;20209;-77
2024/01/31 06:48:35;;;;;;;18.33;11.00;;;;;;;11.68;58.25;100417.16;6703090;29;20315;-77
2024/01/31 06:51:57;;;;;;;14.43;10.63;;;;;;;12.04;58.20;100442.69;6703653;29;20209;-77
2024/01/31 06:55:20;;;;;;;14.83;11.67;;;;;;;11.86;59.01;100447.50;6703932;29;20260;-77
2024/01/31 06:58:41;;;;;;;13.73;10.83;;;;;;;11.89;59.38;100445.28;6682968;29;20260;-78
2024/01/31 07:02:03;;;;;;;15.63;11.40;;;;;;;11.88;59.26;100448.16;6678510;29;20734;-77
2024/01/31 07:05:25;;;;;;;15.23;11.70;;;;;;;11.95;59.55;100447.28;6677965;29;20304;-77
2024/01/31 07:08:46;;;;;;;13.10;10.93;;;;;;;12.33;58.67;100457.25;6678912;29;20366;-79
2024/01/31 07:12:09;;;;;;;13.87;11.30;;;;;;;12.29;58.53;100457.81;6678848;29;20233;-79
2024/01/31 07:15:31;;;;;;;12.33;10.77;;;;;;;12.44;57.99;100454.16;6678074;29;20244;-78
2024/01/31 07:18:52;;;;;;;14.50;10.70;;;;;;;12.44;57.68;100451.47;6677553;29;20292;-78
2024/01/31 07:22:14;;;;;;;13.47;10.83;;;;;;;11.83;59.09;100451.38;6677892;29;20401;-78
2024/01/31 07:25:39;;;;;;;15.23;12.70;;;;;;;11.32;61.84;100430.16;6677700;29;20213;-77
2024/01/31 07:29:02;;;;;;;13.53;11.70;;;;;;;11.71;61.56;100446.50;6677514;29;20320;-79
2024/01/31 07:32:23;;;;;;;13.50;12.00;;;;;;;11.80;61.23;100450.88;6678164;29;20348;-77
2024/01/31 07:35:45;;;;;;;17.53;12.60;;;;;;;11.89;61.04;100448.00;6677696;29;20253;-79
2024/01/31 07:39:07;;;;;;;16.30;12.57;;;;;;;11.92;61.28;100444.09;6677984;29;20328;-79
2024/01/31 07:42:28;;;;;;;20.03;14.43;;;;;;;12.09;60.89;100443.03;6677825;29;20856;-77
2024/01/31 07:45:51;;;;;;;21.20;14.70;;;;;;;12.01;60.86;100441.19;6677676;29;20252;-78
2024/01/31 07:49:13;;;;;;;23.03;13.63;;;;;;;12.03;60.77;100438.31;6685356;29;20362;-79
2024/01/31 07:52:34;;;;;;;19.40;15.17;;;;;;;11.92;61.56;100442.22;6703442;29;20259;-78
2024/01/31 07:55:56;;;;;;;22.87;16.27;;;;;;;11.74;62.21;100435.38;6702809;29;20212;-78
2024/01/31 07:59:17;;;;;;;21.37;15.90;;;;;;;11.57;62.89;100437.22;6704049;29;20324;-78
2024/01/31 08:02:40;;;;;;;20.60;15.73;;;;;;;12.21;61.53;100438.91;6707635;29;20721;-78
2024/01/31 08:06:03;;;;;;;20.43;15.90;;;;;;;12.44;60.60;100445.19;6707829;29;20622;-77
2024/01/31 08:09:25;;;;;;;17.93;14.50;;;;;;;12.23;60.86;100443.09;6707236;29;20889;-78
2024/01/31 08:12:49;;;;;;;19.87;14.27;;;;;;;12.17;60.89;100442.97;6707612;29;20241;-78
2024/01/31 08:16:12;;;;;;;21.57;14.33;;;;;;;12.15;60.83;100440.44;6707705;29;20220;-78
2024/01/31 08:19:35;;;;;;;19.83;13.73;;;;;;;11.79;61.77;100438.38;6707076;29;20240;-79
2024/01/31 08:22:57;;;;;;;18.57;13.87;;;;;;;11.90;62.06;100454.22;6706960;29;20700;-78
2024/01/31 08:26:19;;;;;;;18.60;13.73;;;;;;;12.07;61.64;100445.91;6706907;29;20264;-77
2024/01/31 08:29:40;;;;;;;17.10;13.90;;;;;;;12.16;61.34;100434.00;6707257;29;20449;-78
2024/01/31 08:33:02;;;;;;;19.50;15.10;;;;;;;12.21;61.40;100438.91;6706762;29;20241;-79
2024/01/31 08:36:27;;;;;;;17.23;14.00;;;;;;;12.50;60.71;100439.94;6706569;29;20209;-78
2024/01/31 08:39:49;;;;;;;18.37;14.77;;;;;;;12.56;60.74;100439.22;6706513;29;20242;-77
2024/01/31 08:43:10;;;;;;;26.00;20.17;;;;;;;12.50;60.71;100460.72;6706520;29;20738;-77
2024/01/31 08:46:32;;;;;;;22.53;16.83;;;;;;;12.82;60.29;100452.41;6707332;29;20221;-77
2024/01/31 08:49:53;;;;;;;18.27;15.03;;;;;;;12.91;59.41;100443.22;6706707;29;20225;-79
2024/01/31 08:53:16;;;;;;;21.07;15.87;;;;;;;12.77;59.51;100434.03;6706476;29;20237;-77
2024/01/31 08:56:38;;;;;;;18.93;15.63;;;;;;;12.20;61.29;100423.69;6706391;29;20354;-78
2024/01/31 08:59:59;;;;;;;20.83;15.70;;;;;;;12.16;62.21;100423.19;6706346;29;20241;-77
2024/01/31 09:03:21;;;;;;;24.93;18.77;;;;;;;12.29;61.65;100420.78;6706223;29;20293;-77
2024/01/31 09:06:45;;;;;;;23.30;17.53;;;;;;;12.04;62.63;100434.59;6706263;29;20276;-77
2024/01/31 09:10:09;;;;;;;22.70;15.60;;;;;;;11.37;64.60;100425.09;6705725;29;20233;-78
2024/01/31 09:13:30;;;;;;;18.00;15.30;;;;;;;11.99;64.86;100431.56;6705622;29;20212;-78
2024/01/31 09:16:52;;;;;;;19.80;15.97;;;;;;;12.67;62.30;100422.56;6705835;29;20277;-79
2024/01/31 09:20:13;;;;;;;21.80;14.63;;;;;;;12.77;62.06;100433.16;6705823;29;20268;-78
2024/01/31 09:23:35;;;;;;;20.80;14.60;;;;;;;13.15;61.07;100434.97;6705852;29;20296;-79
2024/01/31 09:26:58;;;;;;;22.77;17.83;;;;;;;13.21;60.86;100439.66;6705341;29;20252;-78
2024/01/31 09:30:20;;;;;;;22.17;18.43;;;;;;;13.47;60.20;100434.66;6705550;29;20598;-78
2024/01/31 09:33:41;;;;;;;22.90;16.90;;;;;;;13.71;59.92;100446.09;6705562;29;20277;-79
2024/01/31 09:37:03;;;;;;;21.47;18.73;;;;;;;13.35;59.81;100444.25;6705895;29;20369;-78
2024/01/31 09:40:25;;;;;;;22.07;18.87;;;;;;;13.47;59.78;100440.06;6705360;29;20385;-78
2024/01/31 09:43:48;;;;;;;24.57;19.73;;;;;;;13.57;59.61;100427.09;6705759;29;20751;-79
2024/01/31 09:47:10;;;;;;;21.17;17.83;;;;;;;13.71;59.29;100432.53;6697030;29;20214;-80
2024/01/31 09:50:32;;;;;;;22.90;16.70;;;;;;;13.71;58.87;100424.41;6681773;29;20227;-79
2024/01/31 09:53:59;;;;;;;20.47;16.13;;;;;;;13.85;58.50;100447.13;6683827;29;20713;-80
2024/01/31 09:57:20;;;;;;;22.63;17.17;;;;;;;13.88;58.89;100442.19;6706145;29;20578;-80
2024/01/31 10:00:44;;;;;;;25.37;17.27;;;;;;;13.89;58.66;100416.75;6706728;29;20702;-80
2024/01/31 10:04:06;;;;;;;23.60;16.33;;;;;;;14.03;58.50;100415.03;6707125;29;20212;-80
2024/01/31 10:07:29;;;;;;;22.00;15.50;;;;;;;14.10;58.01;100427.66;6706153;29;20248;-80
2024/01/31 10:10:51;;;;;;;20.97;16.20;;;;;;;14.09;58.12;100422.44;6707075;29;20726;-79
2024/01/31 10:14:13;;;;;;;18.07;14.50;;;;;;;13.84;58.38;100410.19;6707213;29;20255;-80
2024/01/31 10:17:36;;;;;;;19.53;16.37;;;;;;;14.06;57.62;100406.53;6705791;29;20332;-79
2024/01/31 10:20:58;;;;;;;20.80;15.40;;;;;;;14.36;57.46;100419.06;6706766;29;20229;-81
2024/01/31 10:24:19;;;;;;;22.80;16.50;;;;;;;14.58;56.84;100396.38;6706562;29;20204;-81
2024/01/31 10:27:41;;;;;;;25.87;18.93;;;;;;;14.63;55.70;100404.78;6705654;29;20297;-80
2024/01/31 10:31:03;;;;;;;23.00;17.90;;;;;;;14.38;56.76;100407.00;6702248;29;20230;-79
2024/01/31 10:34:28;;;;;;;22.37;16.53;;;;;;;14.27;56.30;100404.75;6702099;29;20249;-78
2024/01/31 10:37:50;;;;;;;19.53;16.70;;;;;;;14.43;56.15;100398.25;6714626;29;20267;-81
2024/01/31 10:41:13;;;;;;;21.53;17.23;;;;;;;13.97;56.87;100402.22;6720540;29;20291;-78
2024/01/31 10:44:35;;;;;;;21.33;17.30;;;;;;;13.73;58.01;100392.53;6711929;29;20770;-80
2024/01/31 10:47:56;;;;;;;20.90;15.90;;;;;;;14.19;57.24;100380.47;6706343;29;20627;-80
2024/01/31 10:51:19;;;;;;;20.50;17.23;;;;;;;14.46;56.33;100368.03;6706801;29;20238;-79
2024/01/31 10:54:46;;;;;;;20.20;16.13;;;;;;;14.27;56.72;100382.22;6707000;29;20209;-80
2024/01/31 10:58:09;;;;;;;23.23;16.37;;;;;;;13.86;56.75;100345.78;6705697;29;20213;-79
2024/01/31 11:01:31;;;;;;;28.10;17.77;;;;;;;13.95;57.09;100366.34;6706796;29;20273;-80
2024/01/31 11:04:53;;;;;;;24.33;16.67;;;;;;;14.44;56.76;100357.38;6706570;29;20213;-79
2024/01/31 11:08:20;;;;;;;25.67;18.50;;;;;;;14.69;56.38;100368.72;6706985;29;20605;-79
2024/01/31 11:11:41;;;;;;;22.40;17.80;;;;;;;14.49;56.53;100376.63;6708147;29;20277;-79
2024/01/31 11:15:05;;;;;;;24.33;17.47;;;;;;;14.86;55.90;100353.84;6692441;29;20236;-80
2024/01/31 11:18:28;;;;;;;23.40;18.37;;;;;;;15.09;55.65;100362.59;6699955;29;20321;-79
2024/01/31 11:21:50;;;;;;;24.40;17.77;;;;;;;14.78;56.64;100357.53;6709720;29;20252;-79
2024/01/31 11:25:13;;;;;;;25.63;17.77;;;;;;;14.70;56.19;100345.94;6708435;29;20301;-80
2024/01/31 11:28:40;;;;;;;22.23;17.13;;;;;;;14.84;55.98;100343.16;6708386;29;20285;-79
2024/01/31 11:32:02;;;;;;;22.60;17.17;;;;;;;14.87;55.47;100333.78;6700823;29;20218;-79
2024/01/31 11:35:25;;;;;;;23.00;17.27;;;;;;;15.15;54.88;100331.94;6712205;29;20297;-80
2024/01/31 11:38:47;;;;;;;21.90;16.50;;;;;;;14.74;55.92;100315.50;6711234;29;20321;-80
2024/01/31 11:42:09;;;;;;;21.37;16.27;;;;;;;15.40;54.16;100323.16;6712335;29;20225;-80
2024/01/31 11:45:31;;;;;;;21.13;16.20;;;;;;;15.39;54.22;100328.81;6714346;29;20265;-81
2024/01/31 11:48:53;;;;;;;23.60;16.53;;;;;;;15.35;54.38;100327.50;6713602;29;20238;-81
2024/01/31 11:52:15;;;;;;;19.40;16.33;;;;;;;15.64;53.75;100321.84;6703054;29;20234;-79
2024/01/31 11:55:36;;;;;;;21.17;16.47;;;;;;;15.78;53.66;100321.72;6709603;29;20742;-79
2024/01/31 11:59:00;;;;;;;21.30;17.97;;;;;;;15.35;53.90;100309.34;6709833;29;20382;-80
2024/01/31 12:02:22;;;;;;;20.40;16.00;;;;;;;15.56;53.20;100308.41;6709824;29;20662;-79
2024/01/31 12:05:43;;;;;;;20.57;16.07;;;;;;;15.74;52.57;100322.31;6709890;29;20674;-79
2024/01/31 12:09:05;;;;;;;19.97;15.87;;;;;;;15.76;52.60;100317.50;6707298;29;20766;-78
2024/01/31 12:12:27;;;;;;;21.87;15.97;;;;;;;15.57;53.12;100313.63;6707781;29;20230;-78
2024/01/31 12:15:50;;;;;;;23.73;16.63;;;;;;;15.69;53.09;100303.88;6710523;29;20206;-79
2024/01/31 12:19:18;;;;;;;23.03;17.43;;;;;;;15.77;53.27;100306.44;6706483;29;20727;-79
2024/01/31 12:22:41;;;;;;;24.53;20.00;;;;;;;15.81;53.13;100298.72;6707276;29;20304;-78
2024/01/31 12:26:02;;;;;;;24.60;19.73;;;;;;;15.82;53.47;100300.38;6707389;29;20627;-79
2024/01/31 12:29:24;;;;;;;21.33;16.90;;;;;;;15.70;53.57;100302.00;6706874;29;20233;-78
2024/01/31 12:32:47;;;;;;;24.90;17.33;;;;;;;15.99;52.49;100288.94;6708251;29;20298;-78
2024/01/31 12:36:09;;;;;;;24.30;19.13;;;;;;;15.96;51.58;100281.19;6706979;29;20220;-78
2024/01/31 12:39:35;;;;;;;20.23;16.10;;;;;;;14.91;54.15;100284.31;6706898;29;20817;-78
2024/01/31 12:42:57;;;;;;;20.83;15.80;;;;;;;15.23;53.62;100264.69;6707225;29;20238;-79
2024/01/31 12:46:18;;;;;;;20.73;14.40;;;;;;;15.07;54.17;100292.19;6706411;29;20222;-81
2024/01/31 12:49:43;;;;;;;22.90;16.73;;;;;;;15.54;53.27;100286.00;6706423;29;20258;-78
2024/01/31 12:53:04;;;;;;;18.60;15.57;;;;;;;15.82;52.49;100301.22;6706948;29;20252;-79
2024/01/31 12:56:26;;;;;;;20.67;16.33;;;;;;;15.80;52.83;100299.75;6706185;29;20218;-78
2024/01/31 12:59:47;;;;;;;21.10;17.53;;;;;;;16.09;52.67;100292.13;6706215;29;20326;-79
2024/01/31 13:03:13;;;;;;;19.90;15.20;;;;;;;15.74;52.63;100290.50;6706577;29;20631;-78
2024/01/31 13:06:36;;;;;;;19.97;15.23;;;;;;;15.61;53.09;100289.59;6706340;29;20911;-79
2024/01/31 13:09:58;;;;;;;19.83;16.27;;;;;;;16.20;51.78;100290.69;6706263;29;20379;-80
2024/01/31 13:13:19;;;;;;;23.33;16.73;;;;;;;15.76;52.97;100287.59;6706608;29;20219;-79
2024/01/31 13:16:41;;;;;;;18.77;15.57;;;;;;;15.70;52.52;100281.06;6706134;29;20814;-79
2024/01/31 13:20:03;;;;;;;19.00;15.57;;;;;;;16.10;52.05;100284.81;6704664;29;20327;-78
2024/01/31 13:23:26;;;;;;;21.13;16.50;;;;;;;15.56;52.34;100283.94;6705690;29;20233;-79
2024/01/31 13:26:48;;;;;;;18.47;16.20;;;;;;;15.71;52.44;100271.91;6705923;29;20680;-80
2024/01/31 13:30:10;;;;;;;19.70;15.03;;;;;;;16.40;51.03;100283.44;6706990;29;20239;-79
2024/01/31 13:33:31;;;;;;;19.93;15.60;;;;;;;16.16;51.49;100267.66;6705954;29;20225;-79
2024/01/31 13:36:53;;;;;;;21.90;15.73;;;;;;;16.25;51.45;100272.72;6705600;29;20347;-78
2024/01/31 13:40:16;;;;;;;20.87;16.40;;;;;;;15.70;52.70;100259.31;6705623;29;20321;-78
2024/01/31 13:43:37;;;;;;;23.37;16.43;;;;;;;15.96;52.28;100254.00;6705728;29;20207;-79
2024/01/31 13:46:59;;;;;;;22.67;16.33;;;;;;;16.20;52.86;100266.19;6730664;29;20215;-81
2024/01/31 13:50:20;;;;;;;20.63;16.40;;;;;;;16.09;52.61;100245.00;6725344;29;20223;-80
2024/01/31 13:53:42;;;;;;;19.67;15.77;;;;;;;16.10;51.91;100252.16;6736013;29;20215;-79
2024/01/31 13:57:05;;;;;;;23.00;16.77;;;;;;;16.06;52.28;100237.28;6726869;29;20233;-81
2024/01/31 14:00:27;;;;;;;19.60;15.10;;;;;;;16.25;51.90;100231.88;6721805;29;20250;-78
2024/01/31 14:03:50;;;;;;;25.37;15.50;;;;;;;16.18;51.32;100244.63;6705503;29;20305;-78
2024/01/31 14:07:12;;;;;;;18.37;15.00;;;;;;;15.88;52.04;100228.84;6704269;29;20300;-78
2024/01/31 14:10:33;;;;;;;22.13;16.33;;;;;;;16.00;52.15;100241.66;6706971;29;20763;-78
2024/01/31 14:13:56;;;;;;;20.77;15.83;;;;;;;15.78;52.12;100212.06;6699167;29;20688;-78
2024/01/31 14:17:18;;;;;;;21.77;14.83;;;;;;;15.31;53.24;100209.34;6708247;29;20230;-80
2024/01/31 14:20:39;;;;;;;20.30;14.93;;;;;;;15.98;51.73;100199.38;6718242;29;20334;-80
2024/01/31 14:24:01;;;;;;;21.63;15.10;;;;;;;16.30;50.98;100206.75;6718010;29;20216;-80
2024/01/31 14:27:22;;;;;;;22.23;15.17;;;;;;;16.30;50.74;100202.16;6727042;29;20903;-81
2024/01/31 14:30:45;;;;;;;21.87;14.93;;;;;;;16.44;50.82;100213.91;6731032;29;20238;-80
2024/01/31 14:34:07;;;;;;;19.93;15.87;;;;;;;16.56;50.38;100209.50;6711976;29;20210;-79
2024/01/31 14:37:28;;;;;;;19.53;15.03;;;;;;;16.51;50.17;100199.25;6704368;29;20797;-78
2024/01/31 14:40:50;;;;;;;19.63;14.63;;;;;;;16.38;51.28;100201.09;6704047;29;20326;-80
2024/01/31 14:44:12;;;;;;;19.33;14.97;;;;;;;16.27;51.23;100191.66;6704303;29;20234;-78
2024/01/31 14:47:35;;;;;;;20.97;15.97;;;;;;;16.37;51.52;100191.25;6704148;29;20278;-80
2024/01/31 14:50:56;;;;;;;22.70;16.47;;;;;;;16.21;52.00;100197.13;6703633;29;20316;-78
2024/01/31 14:54:18;;;;;;;24.47;17.53;;;;;;;16.15;51.77;100193.34;6705902;29;20218;-78
2024/01/31 14:57:40;;;;;;;21.53;16.10;;;;;;;15.87;52.26;100200.81;6695604;29;20211;-78
2024/01/31 15:01:01;;;;;;;20.07;16.33;;;;;;;15.61;52.81;100206.16;6719171;29;20855;-80
2024/01/31 15:04:24;;;;;;;20.30;15.53;;;;;;;15.93;52.28;100199.97;6716023;29;20579;-78
2024/01/31 15:07:46;;;;;;;20.70;15.70;;;;;;;15.88;52.33;100209.81;6719588;29;20268;-79
2024/01/31 15:11:11;;;;;;;18.97;16.20;;;;;;;15.89;52.53;100206.03;6716082;29;20374;-78
2024/01/31 15:14:32;;;;;;;28.50;16.47;;;;;;;16.00;52.20;100203.59;6712830;29;20246;-78
2024/01/31 15:17:54;;;;;;;20.70;16.13;;;;;;;16.30;51.86;100201.31;6706111;29;20676;-79
2024/01/31 15:21:19;;;;;;;22.10;16.40;;;;;;;15.76;52.95;100181.53;6700852;29;20261;-78